Time;durP1;ratioP1;P1;durP2;ratioP2;P2;SDS_P1;SDS_P2;PMS_P1;PMS_P2;Temp;Humidity;BMP_temperature;BMP_pressure;BME280_temperature;BME280_humidity;BME280_pressure;Samples;Min_cycle;Max_cycle;Signal;HPM_P1;HPM_P2
2022/09/27 00:01:23;;;;;;;4.83;1.60;;;10.70;99.90;;;11.34;100.00;96278.09;5023187;28;20909;-80
2022/09/27 00:03:55;;;;;;;5.10;1.67;;;10.60;99.90;;;11.30;100.00;96289.25;5023820;28;20446;-81
2022/09/27 00:06:27;;;;;;;9.47;1.83;;;10.50;99.90;;;11.29;100.00;96280.59;5022946;28;20526;-80
2022/09/27 00:08:58;;;;;;;6.10;1.63;;;10.60;99.90;;;11.29;100.00;96283.22;5024537;28;20451;-80
2022/09/27 00:11:32;;;;;;;6.57;2.33;;;10.50;99.90;;;11.27;100.00;96282.69;5023699;28;20482;-80
2022/09/27 00:14:01;;;;;;;1.57;1.20;;;10.50;99.90;;;11.31;100.00;96288.25;5023502;28;21019;-80
2022/09/27 00:16:34;;;;;;;11.07;1.97;;;10.50;99.90;;;11.30;100.00;96287.44;5025233;28;20960;-80
2022/09/27 00:19:06;;;;;;;2.93;1.60;;;10.50;99.90;;;11.29;100.00;96293.69;5028307;28;20504;-80
2022/09/27 00:21:35;;;;;;;6.27;2.10;;;10.50;99.90;;;11.29;100.00;96293.69;5024474;28;20545;-80
2022/09/27 00:24:04;;;;;;;2.70;1.70;;;10.50;99.90;;;11.31;100.00;96285.63;5021975;28;20541;-80
2022/09/27 00:26:35;;;;;;;2.70;1.67;;;10.50;99.90;;;11.31;100.00;96291.66;5025768;28;20461;-80
2022/09/27 00:29:04;;;;;;;3.80;1.60;;;10.50;99.90;;;11.30;100.00;96284.81;5024576;28;20488;-80
2022/09/27 00:31:33;;;;;;;4.93;1.97;;;10.50;99.90;;;11.29;100.00;96293.69;5021920;28;20496;-80
2022/09/27 00:34:04;;;;;;;7.10;1.90;;;10.50;99.90;;;11.28;100.00;96288.72;5023666;28;21144;-80
2022/09/27 00:36:34;;;;;;;1.70;1.20;;;10.50;99.90;;;11.30;100.00;96284.81;5023268;28;20538;-80
2022/09/27 00:39:03;;;;;;;6.57;1.70;;;10.60;99.90;;;11.28;100.00;96292.09;5025850;28;20592;-80
2022/09/27 00:41:36;;;;;;;2.70;1.20;;;10.60;99.90;;;11.28;100.00;96294.72;5023491;28;20464;-80
2022/09/27 00:44:44;;;;;;;12.13;1.80;;;10.70;99.90;;;11.27;100.00;96290.53;5025962;28;20949;-82
2022/09/27 00:47:23;;;;;;;10.30;1.87;;;10.60;99.90;;;11.26;100.00;96282.91;5021424;28;20450;-80
2022/09/27 00:49:57;;;;;;;1.93;1.60;;;10.60;99.90;;;11.23;100.00;96284.16;5020807;28;21101;-80
2022/09/27 00:52:34;;;;;;;2.87;1.50;;;10.70;99.90;;;11.17;100.00;96282.50;5022233;28;20585;-80
2022/09/27 00:55:10;;;;;;;4.50;1.70;;;10.70;99.90;;;11.18;100.00;96284.06;5022539;28;20439;-80
2022/09/27 00:57:45;;;;;;;3.80;1.37;;;10.70;99.90;;;11.15;100.00;96283.75;5020689;28;20827;-80
2022/09/27 01:00:15;;;;;;;1.40;1.07;;;10.60;99.90;;;11.14;100.00;96282.97;5022049;28;20541;-80
2022/09/27 01:02:50;;;;;;;6.50;1.83;;;10.60;99.90;;;11.16;100.00;96286.13;5023050;28;20456;-80
2022/09/27 01:05:25;;;;;;;4.00;1.30;;;10.60;99.90;;;11.13;100.00;96284.00;5019025;28;20430;-81
2022/09/27 01:07:55;;;;;;;4.20;1.20;;;10.60;99.90;;;11.15;100.00;96287.16;5022096;28;20481;-80
2022/09/27 01:10:28;;;;;;;2.30;1.00;;;10.60;99.90;;;11.11;100.00;96280.78;5025414;28;20889;-80
2022/09/27 01:13:11;;;;;;;3.87;1.30;;;10.60;99.90;;;11.05;100.00;96284.34;5023779;28;21064;-80
2022/09/27 01:15:57;;;;;;;2.30;1.30;;;10.60;99.90;;;11.05;100.00;96295.63;5023609;28;21378;-80
2022/09/27 01:18:39;;;;;;;3.03;1.43;;;10.60;99.90;;;11.08;100.00;96294.34;5023229;28;20438;-80
2022/09/27 01:21:58;;;;;;;1.70;1.00;;;10.50;99.90;;;11.09;100.00;96295.94;5026213;28;20437;-80
2022/09/27 01:25:03;;;;;;;4.50;1.93;;;10.40;99.90;;;11.11;100.00;96307.75;5022260;28;20459;-80
2022/09/27 01:28:11;;;;;;;3.30;1.00;;;10.50;99.90;;;11.05;100.00;96307.88;5021413;28;20830;-80
2022/09/27 01:30:50;;;;;;;1.40;1.00;;;10.40;99.90;;;11.02;100.00;96311.78;5021793;28;20504;-80
2022/09/27 01:33:44;;;;;;;2.40;1.10;;;10.50;99.90;;;10.99;100.00;96300.97;5021702;28;20492;-80
2022/09/27 01:36:28;;;;;;;1.70;1.00;;;10.50;99.90;;;11.02;100.00;96305.75;5021007;28;20549;-80
2022/09/27 01:39:14;;;;;;;1.90;1.00;;;10.50;99.90;;;10.98;100.00;96312.47;5021475;28;20450;-80
2022/09/27 01:41:56;;;;;;;1.03;0.93;;;10.50;99.90;;;10.93;100.00;96301.91;5020049;28;20481;-80
2022/09/27 01:44:34;;;;;;;1.40;1.10;;;10.40;99.90;;;10.91;100.00;96309.19;5020848;28;20957;-81
2022/09/27 01:47:12;;;;;;;0.83;0.83;;;10.40;99.90;;;10.93;100.00;96309.75;5022614;28;20516;-80
2022/09/27 01:49:52;;;;;;;6.40;1.00;;;10.40;99.90;;;10.94;100.00;96313.94;5022512;28;20585;-81
2022/09/27 01:52:31;;;;;;;2.30;1.10;;;10.30;99.90;;;10.92;100.00;96313.41;5021664;28;20481;-81
2022/09/27 01:55:05;;;;;;;2.30;1.97;;;10.30;99.90;;;10.97;100.00;96321.31;5022319;28;20439;-80
2022/09/27 01:57:41;;;;;;;0.80;0.80;;;10.30;99.90;;;10.95;100.00;96318.16;5022981;28;20501;-80
2022/09/27 02:00:12;;;;;;;2.90;1.10;;;10.40;99.90;;;10.92;100.00;96316.00;5019858;28;20523;-82
2022/09/27 02:02:50;;;;;;;1.07;0.97;;;10.40;99.90;;;10.88;100.00;96312.25;5024590;28;20525;-80
2022/09/27 02:05:27;;;;;;;3.17;1.10;;;10.30;99.90;;;10.93;100.00;96325.44;5021826;28;20533;-80
2022/09/27 02:08:02;;;;;;;3.47;1.20;;;10.40;99.90;;;10.93;100.00;96325.44;5020726;28;20472;-81
2022/09/27 02:10:41;;;;;;;1.00;0.90;;;10.40;99.90;;;10.83;100.00;96326.03;5020413;28;20468;-80
2022/09/27 02:13:21;;;;;;;1.10;0.90;;;10.40;99.90;;;10.84;100.00;96332.03;5020542;28;20503;-81
2022/09/27 02:15:58;;;;;;;0.80;0.80;;;10.30;99.90;;;10.85;100.00;96331.84;5021272;28;20454;-80
2022/09/27 02:18:38;;;;;;;1.30;0.80;;;10.30;99.90;;;10.86;100.00;96330.81;5022030;28;20500;-81
2022/09/27 02:21:15;;;;;;;1.73;0.90;;;10.30;99.90;;;10.86;100.00;96330.00;5021948;28;20536;-80
2022/09/27 02:23:51;;;;;;;0.80;0.80;;;10.30;99.90;;;10.86;100.00;96340.47;5020994;28;20522;-80
2022/09/27 02:26:27;;;;;;;1.00;0.80;;;10.30;99.90;;;10.86;100.00;96345.72;5019174;28;20475;-80
2022/09/27 02:29:05;;;;;;;0.80;0.80;;;10.30;99.90;;;10.85;100.00;96344.91;5021114;28;20540;-80
2022/09/27 02:31:34;;;;;;;2.57;1.03;;;10.40;99.90;;;10.82;100.00;96349.78;5019572;28;20454;-80
2022/09/27 02:34:11;;;;;;;1.53;0.90;;;10.30;99.90;;;10.81;100.00;96348.19;5020421;28;20577;-80
2022/09/27 02:36:42;;;;;;;0.77;0.73;;;10.40;99.90;;;10.80;100.00;96350.00;5019123;28;20449;-80
2022/09/27 02:39:11;;;;;;;1.70;0.80;;;10.30;99.90;;;10.78;100.00;96357.31;5019644;28;20474;-81
2022/09/27 02:41:40;;;;;;;1.00;0.87;;;10.20;99.90;;;10.78;100.00;96359.13;5018679;28;20490;-80
2022/09/27 02:44:13;;;;;;;1.00;0.90;;;10.20;99.90;;;10.80;100.00;96362.28;5018871;28;20443;-80
2022/09/27 02:47:21;;;;;;;1.40;0.90;;;10.30;99.90;;;10.79;100.00;96365.94;5021155;28;20524;-80
2022/09/27 02:50:15;;;;;;;1.27;0.90;;;10.20;99.90;;;10.80;100.00;96372.75;5027187;28;20549;-80
2022/09/27 02:53:00;;;;;;;2.07;1.20;;;10.20;99.90;;;10.82;100.00;96375.94;5024358;28;20573;-81
2022/09/27 02:55:44;;;;;;;1.20;0.97;;;10.10;99.90;;;10.73;100.00;96385.16;5026044;28;20458;-80
2022/09/27 02:58:33;;;;;;;1.00;0.90;;;10.20;99.90;;;10.69;100.00;96381.41;5028156;28;20545;-80
2022/09/27 03:01:12;;;;;;;1.97;0.90;;;10.20;99.90;;;10.67;100.00;96370.38;5023584;28;20558;-80
2022/09/27 03:03:52;;;;;;;1.33;0.90;;;10.20;99.90;;;10.71;100.00;96380.16;5025750;28;20858;-80
2022/09/27 03:06:24;;;;;;;1.77;0.87;;;10.20;99.90;;;10.74;100.00;96391.97;5025189;28;20569;-80
2022/09/27 03:08:53;;;;;;;1.00;0.90;;;10.20;99.90;;;10.62;100.00;96396.44;5019594;28;20516;-85
2022/09/27 03:11:23;;;;;;;1.53;1.23;;;10.10;99.90;;;10.64;100.00;96391.75;5020104;28;20558;-80
2022/09/27 03:13:52;;;;;;;0.93;0.87;;;10.10;99.90;;;10.66;100.00;96392.31;5023727;28;20940;-80
2022/09/27 03:16:36;;;;;;;1.00;0.90;;;10.10;99.90;;;10.67;100.00;96393.91;5021211;28;20477;-80
2022/09/27 03:19:06;;;;;;;1.33;1.10;;;10.10;99.90;;;10.65;100.00;96390.75;5020611;28;20465;-81
2022/09/27 03:21:36;;;;;;;1.00;0.90;;;10.10;99.90;;;10.66;100.00;96398.34;5022472;28;20505;-83
2022/09/27 03:24:06;;;;;;;2.60;1.53;;;10.00;99.90;;;10.69;100.00;96399.72;5020970;28;21078;-81
2022/09/27 03:26:35;;;;;;;0.80;0.80;;;10.00;99.90;;;10.68;100.00;96411.19;5019814;28;20993;-80
2022/09/27 03:29:04;;;;;;;0.80;0.80;;;10.20;99.90;;;10.64;100.00;96415.28;5022816;28;20472;-80
2022/09/27 03:31:32;;;;;;;2.50;1.00;;;10.10;99.90;;;10.60;100.00;96414.94;5021904;28;20505;-80
2022/09/27 03:34:01;;;;;;;1.37;0.87;;;10.10;99.90;;;10.60;100.00;96410.50;5022392;28;20584;-81
2022/09/27 03:36:31;;;;;;;1.30;0.80;;;10.00;99.90;;;10.62;100.00;96412.09;5024692;28;20522;-80
2022/09/27 03:39:01;;;;;;;5.60;1.00;;;10.00;99.90;;;10.60;100.00;96404.47;5023138;28;20561;-80
2022/09/27 03:41:31;;;;;;;1.07;0.80;;;10.00;99.90;;;10.54;100.00;96403.59;5023050;28;20458;-80
2022/09/27 03:43:59;;;;;;;3.23;1.00;;;10.00;99.90;;;10.55;100.00;96410.38;5024602;28;20986;-80
2022/09/27 03:46:30;;;;;;;2.57;1.00;;;10.00;99.90;;;10.52;100.00;96408.22;5024171;28;20485;-80
2022/09/27 03:49:04;;;;;;;3.77;0.90;;;10.00;99.90;;;10.53;100.00;96409.81;5022493;28;20458;-81
2022/09/27 03:51:34;;;;;;;2.90;1.40;;;10.00;99.90;;;10.54;100.00;96408.81;4990327;28;20480;-81
2022/09/27 03:54:07;;;;;;;1.00;0.90;;;10.00;99.90;;;10.50;100.00;96407.66;5021802;28;20696;-80
2022/09/27 03:56:36;;;;;;;0.80;0.80;;;9.90;99.90;;;10.54;100.00;96405.41;5023178;28;20495;-81
2022/09/27 03:59:04;;;;;;;0.80;0.70;;;9.90;99.90;;;10.58;100.00;96409.16;5020840;28;20557;-81
2022/09/27 04:01:34;;;;;;;0.80;0.80;;;10.00;99.90;;;10.59;100.00;96413.34;5021298;28;20472;-81
2022/09/27 04:04:04;;;;;;;1.20;1.10;;;10.00;99.90;;;10.59;100.00;96411.53;5023816;28;20466;-80
2022/09/27 04:06:39;;;;;;;1.37;1.00;;;10.00;99.90;;;10.57;100.00;96412.78;5020720;28;21015;-83
2022/09/27 04:09:09;;;;;;;2.20;1.27;;;10.00;99.90;;;10.52;100.00;96416.06;5021463;28;20975;-81
2022/09/27 04:11:38;;;;;;;1.03;0.80;;;10.00;99.90;;;10.49;100.00;96413.09;5021019;28;20473;-80
2022/09/27 04:14:07;;;;;;;1.33;0.80;;;9.90;99.90;;;10.49;100.00;96423.56;5020955;28;20583;-80
2022/09/27 04:16:36;;;;;;;1.57;0.83;;;9.90;99.90;;;10.44;100.00;96416.41;5021195;28;20550;-80
2022/09/27 04:19:05;;;;;;;1.20;1.10;;;9.80;99.90;;;10.44;100.00;96410.41;5022164;28;20458;-80
2022/09/27 04:21:34;;;;;;;1.30;0.80;;;9.80;99.90;;;10.46;100.00;96414.38;5021395;28;20489;-80
2022/09/27 04:24:04;;;;;;;1.10;1.00;;;9.90;99.90;;;10.49;100.00;96419.13;5024460;28;20493;-80
2022/09/27 04:26:34;;;;;;;3.83;1.07;;;9.90;99.90;;;10.47;100.00;96421.19;5023474;28;20553;-80
2022/09/27 04:29:04;;;;;;;2.03;0.90;;;9.90;99.90;;;10.45;100.00;96423.22;5022467;28;20526;-80
2022/09/27 04:31:32;;;;;;;1.00;0.90;;;9.80;99.90;;;10.39;100.00;96412.88;5023442;28;20495;-80
2022/09/27 04:34:01;;;;;;;2.53;0.87;;;9.90;99.90;;;10.34;100.00;96415.38;5023352;28;20585;-81
2022/09/27 04:36:31;;;;;;;1.90;1.57;;;9.80;99.90;;;10.33;100.00;96414.59;5021592;28;20836;-80
2022/09/27 04:39:04;;;;;;;1.20;0.80;;;9.80;99.90;;;10.38;100.00;96422.53;5022870;28;20455;-80
2022/09/27 04:41:35;;;;;;;1.57;1.10;;;9.80;99.90;;;10.36;100.00;96421.16;5023793;28;20482;-80
2022/09/27 04:44:05;;;;;;;2.87;0.90;;;9.80;99.90;;;10.38;100.00;96416.50;5022031;28;20459;-80
2022/09/27 04:46:33;;;;;;;1.43;0.90;;;9.80;99.90;;;10.31;100.00;96426.28;5022160;28;20459;-80
2022/09/27 04:49:03;;;;;;;1.53;0.90;;;9.90;99.90;;;10.23;100.00;96419.56;5023698;28;20471;-80
2022/09/27 04:51:32;;;;;;;1.00;0.83;;;9.70;99.90;;;10.24;100.00;96426.38;5022712;28;20481;-81
2022/09/27 04:54:01;;;;;;;1.10;0.90;;;9.60;99.90;;;10.26;100.00;96419.13;5025127;28;20524;-80
2022/09/27 04:56:30;;;;;;;1.10;1.00;;;9.70;99.90;;;10.22;100.00;96419.78;5022749;28;20530;-80
2022/09/27 04:59:00;;;;;;;2.87;1.00;;;9.70;99.90;;;10.22;100.00;96425.00;5024659;28;20457;-80
2022/09/27 05:01:32;;;;;;;1.63;0.87;;;9.80;99.90;;;10.20;100.00;96443.53;5020851;28;20474;-80
2022/09/27 05:04:01;;;;;;;0.80;0.80;;;9.70;99.90;;;10.15;100.00;96432.16;5023046;28;20502;-80
2022/09/27 05:06:31;;;;;;;1.47;0.80;;;9.60;99.90;;;10.14;100.00;96441.78;5024065;28;20528;-80
2022/09/27 05:09:00;;;;;;;0.80;0.80;;;9.60;99.90;;;10.15;100.00;96446.00;5024177;28;20500;-80
2022/09/27 05:11:29;;;;;;;0.80;0.77;;;9.50;99.90;;;10.15;100.00;96455.66;5025428;28;20607;-80
2022/09/27 05:14:00;;;;;;;0.90;0.80;;;9.50;99.90;;;10.10;100.00;96458.88;5024436;28;20596;-80
2022/09/27 05:16:30;;;;;;;1.00;0.90;;;9.50;99.90;;;10.15;100.00;96459.06;5024659;28;20450;-80
2022/09/27 05:19:01;;;;;;;1.37;0.80;;;9.60;99.90;;;10.13;100.00;96463.69;5025618;28;21128;-80
2022/09/27 05:21:32;;;;;;;3.57;1.27;;;9.60;99.90;;;10.10;100.00;96467.53;5024714;28;20569;-80
2022/09/27 05:24:01;;;;;;;0.70;0.70;;;9.50;99.90;;;10.08;100.00;96474.00;5023507;28;20514;-80
2022/09/27 05:26:29;;;;;;;7.60;0.80;;;9.50;99.90;;;10.10;100.00;96471.94;5023416;28;20516;-80
2022/09/27 05:29:00;;;;;;;2.27;0.97;;;9.60;99.90;;;10.08;100.00;96476.59;5024350;28;20878;-80
2022/09/27 05:31:30;;;;;;;2.07;0.80;;;9.50;99.90;;;10.08;100.00;96479.22;5024155;28;20953;-80
2022/09/27 05:33:59;;;;;;;2.40;0.80;;;9.50;99.90;;;10.10;100.00;96480.59;5022768;28;20681;-80
2022/09/27 05:36:28;;;;;;;0.80;0.70;;;9.50;99.90;;;10.13;100.00;96487.19;5023191;28;21306;-80
2022/09/27 05:38:57;;;;;;;0.83;0.83;;;9.60;99.90;;;10.10;100.00;96487.63;5023822;28;20454;-80
2022/09/27 05:41:26;;;;;;;1.20;0.90;;;9.40;99.90;;;10.10;100.00;96498.88;5022450;28;20833;-80
2022/09/27 05:43:55;;;;;;;1.23;0.80;;;9.40;99.90;;;10.13;100.00;96499.47;5023784;28;20446;-80
2022/09/27 05:46:25;;;;;;;1.00;0.90;;;9.50;99.90;;;10.10;100.00;96498.06;5022400;28;20876;-80
2022/09/27 05:48:54;;;;;;;2.87;0.97;;;9.40;99.90;;;10.08;100.00;96510.56;5022945;28;20434;-80
2022/09/27 05:51:24;;;;;;;0.93;0.83;;;9.40;99.90;;;10.09;100.00;96512.16;5023166;28;20461;-80
2022/09/27 05:53:54;;;;;;;0.90;0.80;;;9.40;99.90;;;10.07;100.00;96516.78;5022692;28;20553;-80
2022/09/27 05:56:23;;;;;;;3.00;0.80;;;9.30;99.90;;;10.06;100.00;96521.25;5023507;28;20507;-80
2022/09/27 05:58:52;;;;;;;2.30;1.00;;;9.30;99.90;;;10.06;100.00;96523.06;5024745;28;20530;-80
2022/09/27 06:01:21;;;;;;;7.17;1.27;;;9.40;99.90;;;10.08;100.00;96521.81;5023576;28;20875;-80
2022/09/27 06:03:52;;;;;;;1.13;0.90;;;9.30;99.90;;;10.09;100.00;96528.63;5022896;28;20553;-80
2022/09/27 06:06:22;;;;;;;1.20;0.83;;;9.30;99.90;;;10.07;100.00;96524.63;5021809;28;20581;-80
2022/09/27 06:08:51;;;;;;;1.87;1.00;;;9.30;99.90;;;10.09;100.00;96527.84;5020838;28;20538;-80
2022/09/27 06:11:19;;;;;;;2.10;1.13;;;9.40;99.90;;;10.08;100.00;96527.03;5022161;28;20450;-80
2022/09/27 06:13:48;;;;;;;9.50;1.00;;;9.40;99.90;;;10.11;100.00;96531.81;5020930;28;20557;-80
2022/09/27 06:16:17;;;;;;;1.00;0.70;;;9.40;99.90;;;10.13;100.00;96542.03;5021710;28;20524;-80
2022/09/27 06:18:46;;;;;;;3.03;0.90;;;9.40;99.90;;;10.15;100.00;96537.41;5021183;28;20453;-80
2022/09/27 06:21:16;;;;;;;1.43;1.07;;;9.40;99.90;;;10.15;100.00;96537.41;5022967;28;20469;-80
2022/09/27 06:23:45;;;;;;;0.80;0.73;;;9.40;99.90;;;10.14;100.00;96541.03;5025305;28;20529;-80
2022/09/27 06:26:19;;;;;;;0.83;0.83;;;9.40;99.90;;;10.15;100.00;96541.84;5024819;28;20536;-80
2022/09/27 06:28:49;;;;;;;1.23;0.80;;;9.40;99.90;;;10.17;100.00;96545.81;5025769;28;20825;-80
2022/09/27 06:31:18;;;;;;;1.00;0.90;;;9.40;99.90;;;10.17;100.00;96540.59;5023632;28;20445;-80
2022/09/27 06:33:47;;;;;;;1.23;1.10;;;9.50;99.90;;;10.20;100.00;96548.00;5025007;28;20458;-80
2022/09/27 06:36:17;;;;;;;1.40;0.90;;;9.50;99.90;;;10.23;100.00;96549.38;5024310;28;20545;-80
2022/09/27 06:38:47;;;;;;;2.00;0.90;;;9.40;99.90;;;10.24;100.00;96543.91;5024058;28;20553;-80
2022/09/27 06:41:16;;;;;;;1.00;0.90;;;9.40;99.90;;;10.27;100.00;96546.13;5024430;28;20435;-80
2022/09/27 06:43:44;;;;;;;2.17;0.93;;;9.50;99.90;;;10.22;100.00;96543.34;5022726;28;20528;-80
2022/09/27 06:46:13;;;;;;;0.97;0.80;;;9.40;99.90;;;10.24;100.00;96549.13;5024466;28;20497;-80
2022/09/27 06:48:42;;;;;;;5.70;1.90;;;9.50;99.90;;;10.27;100.00;96553.16;5023657;28;20537;-80
2022/09/27 06:51:11;;;;;;;1.00;0.90;;;9.60;99.90;;;10.27;100.00;96561.78;5025187;28;20879;-80
2022/09/27 06:53:41;;;;;;;2.80;1.07;;;9.70;99.90;;;10.24;100.00;96553.59;5025916;28;20901;-80
2022/09/27 06:56:10;;;;;;;1.83;1.00;;;9.70;99.90;;;10.28;100.00;96559.94;5026998;28;20577;-80
2022/09/27 07:01:29;;;;;;;1.00;0.93;;;9.70;99.90;;;10.29;100.00;96557.13;5028598;28;20501;-80
2022/09/27 07:03:57;;;;;;;1.43;1.10;;;9.70;99.90;;;10.31;100.00;96552.47;5028525;28;20948;-80
2022/09/27 07:06:26;;;;;;;1.43;1.10;;;9.70;99.90;;;10.29;100.00;96554.50;5026863;28;20577;-80
2022/09/27 07:08:57;;;;;;;1.90;0.80;;;9.70;99.90;;;10.24;100.00;96556.97;5027882;28;20445;-80
2022/09/27 07:11:26;;;;;;;1.40;0.90;;;9.70;99.90;;;10.28;100.00;96563.34;5026813;28;20589;-80
2022/09/27 07:13:55;;;;;;;0.97;0.87;;;9.70;99.90;;;10.27;100.00;96561.78;5026992;28;20542;-80
2022/09/27 07:16:24;;;;;;;0.80;0.80;;;9.70;99.90;;;10.30;100.00;96568.38;5028935;28;20584;-79
2022/09/27 07:18:53;;;;;;;1.37;0.90;;;9.80;99.90;;;10.29;100.00;96572.81;5026287;28;20449;-80
2022/09/27 07:21:22;;;;;;;1.00;0.87;;;9.70;99.90;;;10.29;100.00;96575.41;5028315;28;20537;-80
2022/09/27 07:23:50;;;;;;;2.47;0.90;;;9.80;99.90;;;10.31;100.00;96578.59;5027290;28;20458;-80
2022/09/27 07:26:21;;;;;;;1.07;0.80;;;9.80;99.90;;;10.36;100.00;96576.13;5027923;28;20547;-80
2022/09/27 07:28:52;;;;;;;1.27;0.90;;;9.80;99.90;;;10.34;100.00;96570.34;5025182;28;20453;-80
2022/09/27 07:31:21;;;;;;;1.10;0.87;;;9.80;99.90;;;10.37;100.00;96571.69;5025413;28;20447;-80
2022/09/27 07:33:51;;;;;;;0.70;0.70;;;9.80;99.90;;;10.43;100.00;96576.81;5024370;28;20537;-80
2022/09/27 07:36:20;;;;;;;1.50;0.87;;;9.90;99.90;;;10.43;100.00;96576.81;5025105;28;20474;-80
2022/09/27 07:38:53;;;;;;;2.33;0.80;;;9.90;99.90;;;10.47;100.00;96572.75;5025052;28;21011;-80
2022/09/27 07:41:23;;;;;;;0.97;0.80;;;10.00;99.90;;;10.46;100.00;96571.16;5026509;28;20466;-80
2022/09/27 07:43:52;;;;;;;0.80;0.80;;;10.00;99.90;;;10.40;100.00;96574.66;5025642;28;20478;-80
2022/09/27 07:46:22;;;;;;;1.20;0.93;;;10.00;99.90;;;10.42;100.00;96580.44;5027099;28;20446;-80
2022/09/27 07:48:52;;;;;;;1.57;1.00;;;9.90;99.90;;;10.48;100.00;96584.00;5025951;28;20485;-80
2022/09/27 07:51:21;;;;;;;1.33;1.00;;;9.90;99.90;;;10.51;100.00;96580.94;5023529;28;20471;-80
2022/09/27 07:53:50;;;;;;;1.77;1.33;;;9.90;99.90;;;10.49;100.00;96586.38;5024461;28;20476;-80
2022/09/27 07:56:19;;;;;;;1.33;1.20;;;10.00;99.90;;;10.45;100.00;96592.28;5024222;28;21118;-80
2022/09/27 07:58:49;;;;;;;1.37;0.80;;;10.00;99.90;;;10.47;100.00;96593.66;5022350;28;20443;-80
2022/09/27 08:01:17;;;;;;;2.00;0.80;;;10.00;99.90;;;10.45;100.00;96597.50;5021814;28;20478;-80
2022/09/27 08:03:46;;;;;;;3.33;0.87;;;9.90;99.90;;;10.44;100.00;96601.16;5022537;28;20493;-80
2022/09/27 08:06:17;;;;;;;1.10;0.90;;;9.90;99.90;;;10.50;100.00;96606.28;5023072;28;20493;-80
2022/09/27 08:08:46;;;;;;;2.60;0.83;;;10.00;99.90;;;10.49;100.00;96601.25;5022176;28;20457;-80
2022/09/27 08:11:18;;;;;;;1.27;0.87;;;10.00;99.90;;;10.54;100.00;96609.25;5022866;28;20545;-80
2022/09/27 08:13:51;;;;;;;0.80;0.80;;;10.00;99.90;;;10.58;100.00;96600.75;5023717;28;20871;-80
2022/09/27 08:16:21;;;;;;;1.03;0.80;;;10.00;99.90;;;10.57;100.00;96607.00;5023003;28;20492;-80
2022/09/27 08:18:49;;;;;;;1.27;0.80;;;10.10;99.90;;;10.62;100.00;96603.69;5021705;28;20474;-80
2022/09/27 08:21:18;;;;;;;0.93;0.70;;;10.20;99.90;;;10.63;100.00;96601.88;5022534;28;20565;-80
2022/09/27 08:23:47;;;;;;;1.47;1.00;;;10.10;99.90;;;10.66;100.00;96599.63;5022163;28;20494;-80
2022/09/27 08:26:17;;;;;;;0.97;0.70;;;10.10;99.90;;;10.65;100.00;96594.63;5023730;28;20473;-79
2022/09/27 08:28:49;;;;;;;0.97;0.87;;;10.10;99.90;;;10.72;100.00;96585.69;5022320;28;20841;-79
2022/09/27 08:31:18;;;;;;;0.83;0.77;;;10.20;99.90;;;10.72;100.00;96592.72;5021238;28;20544;-80
2022/09/27 08:33:50;;;;;;;0.90;0.80;;;10.20;99.90;;;10.75;100.00;96587.84;5021571;28;20509;-80
2022/09/27 08:36:20;;;;;;;0.87;0.80;;;10.20;99.90;;;10.78;100.00;96594.44;5022859;28;20505;-80
2022/09/27 08:38:49;;;;;;;1.00;0.90;;;10.20;99.90;;;10.80;100.00;96595.00;5027731;28;20465;-80
2022/09/27 08:41:35;;;;;;;1.03;0.97;;;10.20;99.90;;;10.85;100.00;96595.94;5025139;28;20442;-80
2022/09/27 08:44:17;;;;;;;1.00;0.90;;;10.20;99.90;;;10.89;100.00;96602.31;5024291;28;20953;-80
2022/09/27 08:47:01;;;;;;;1.30;1.00;;;10.30;99.90;;;10.92;100.00;96598.44;5025960;28;20490;-80
2022/09/27 08:49:39;;;;;;;2.00;0.90;;;10.30;99.90;;;10.96;100.00;96605.63;5025467;28;20485;-80
2022/09/27 08:52:17;;;;;;;4.93;1.37;;;10.50;99.90;;;11.03;100.00;96601.09;5024329;28;21025;-80
2022/09/27 08:54:49;;;;;;;4.97;1.17;;;10.40;99.90;;;11.10;100.00;96598.38;5026141;28;20911;-80
2022/09/27 08:57:17;;;;;;;1.40;1.30;;;10.60;99.90;;;11.09;100.00;96594.16;5024806;28;20536;-80
2022/09/27 08:59:59;;;;;;;3.93;1.30;;;10.50;99.90;;;11.14;100.00;96602.13;5024616;28;20450;-80
2022/09/27 09:02:28;;;;;;;3.40;1.30;;;10.60;99.90;;;11.11;100.00;96597.31;5025195;28;20494;-80
2022/09/27 09:05:08;;;;;;;2.77;1.20;;;10.50;99.90;;;11.16;100.00;96597.47;5024367;28;20474;-80
2022/09/27 09:08:01;;;;;;;5.00;1.50;;;10.70;99.90;;;11.20;100.00;96600.41;5024358;28;20450;-80
2022/09/27 09:13:57;;;;;;;4.20;1.10;;;10.70;99.90;;;11.23;100.00;96603.38;5023422;28;20458;-80
2022/09/27 09:16:44;;;;;;;1.50;1.10;;;10.70;99.90;;;11.20;100.00;96603.84;5023983;28;20577;-80
2022/09/27 09:19:40;;;;;;;1.57;1.20;;;10.70;99.90;;;11.28;100.00;96600.09;5023236;28;20522;-80
2022/09/27 09:22:29;;;;;;;2.80;1.23;;;10.80;99.90;;;11.28;100.00;96600.88;5023420;28;20447;-80
2022/09/27 09:25:28;;;;;;;1.20;1.10;;;10.90;99.90;;;11.26;100.00;96592.47;5024317;28;20454;-79
2022/09/27 09:28:20;;;;;;;1.33;1.13;;;10.80;99.90;;;11.31;100.00;96604.88;5024689;28;20850;-80
2022/09/27 09:31:05;;;;;;;5.23;1.23;;;10.80;99.90;;;11.30;100.00;96588.38;5024196;28;20541;-79
2022/09/27 09:33:44;;;;;;;2.30;1.20;;;10.90;99.90;;;11.35;100.00;96601.56;5024779;28;20538;-79
2022/09/27 09:36:26;;;;;;;4.17;1.57;;;10.80;99.90;;;11.36;100.00;96597.91;5022732;28;20471;-79
2022/09/27 09:39:02;;;;;;;5.23;1.40;;;10.80;99.90;;;11.39;100.00;96597.47;5021732;28;21085;-79
2022/09/27 09:41:39;;;;;;;4.03;1.40;;;10.90;99.90;;;11.44;100.00;96594.16;5018477;28;20485;-79
2022/09/27 09:44:22;;;;;;;1.37;1.23;;;10.90;99.90;;;11.44;100.00;96594.97;5021217;28;20560;-79
2022/09/27 09:46:56;;;;;;;2.40;1.60;;;10.90;99.90;;;11.42;100.00;96591.75;5025028;28;20476;-80
2022/09/27 09:49:34;;;;;;;3.10;1.30;;;10.90;99.90;;;11.54;100.00;96589.16;5025609;28;20469;-80
2022/09/27 09:52:12;;;;;;;7.47;1.70;;;11.00;99.90;;;11.56;100.00;96587.09;5024188;28;20531;-79
2022/09/27 09:54:46;;;;;;;4.40;1.37;;;11.10;99.90;;;11.62;100.00;96586.19;5025409;28;20482;-79
2022/09/27 09:57:20;;;;;;;2.83;1.90;;;11.20;99.90;;;11.58;100.00;96582.44;5023129;28;20597;-80
2022/09/27 09:59:59;;;;;;;8.03;1.90;;;11.00;99.90;;;11.65;100.00;96587.56;5023922;28;20921;-79
2022/09/27 10:02:33;;;;;;;6.03;2.00;;;11.20;99.90;;;11.70;100.00;96582.44;5022480;28;20580;-79
2022/09/27 10:05:06;;;;;;;4.70;1.50;;;11.20;99.90;;;11.71;100.00;96581.41;5022603;28;20500;-80
2022/09/27 10:07:39;;;;;;;3.87;1.80;;;11.20;99.90;;;11.75;100.00;96593.03;5023734;28;20455;-79
2022/09/27 10:10:16;;;;;;;2.80;1.47;;;11.30;99.90;;;11.64;100.00;96599.84;5024453;28;20488;-79
2022/09/27 10:12:46;;;;;;;2.30;1.50;;;11.10;99.90;;;11.61;100.00;96601.09;5021905;28;20453;-79
2022/09/27 10:15:19;;;;;;;2.07;1.40;;;11.10;99.90;;;11.57;100.00;96594.72;5024379;28;20450;-79
2022/09/27 10:17:52;;;;;;;2.13;1.30;;;11.10;99.90;;;11.57;100.00;96586.88;5023655;28;20515;-79
2022/09/27 10:20:33;;;;;;;2.50;1.20;;;11.00;99.90;;;11.64;100.00;96584.13;5022296;28;20509;-79
2022/09/27 10:23:11;;;;;;;3.33;1.47;;;11.10;99.90;;;11.70;100.00;96571.97;5024681;28;20449;-79
2022/09/27 10:25:53;;;;;;;3.00;1.53;;;11.10;99.90;;;11.69;100.00;96575.59;5024746;28;20442;-79
2022/09/27 10:28:37;;;;;;;5.00;1.70;;;11.10;99.90;;;11.73;100.00;96572.31;5024437;28;20454;-79
2022/09/27 10:31:09;;;;;;;3.13;1.60;;;11.10;99.90;;;11.79;100.00;96566.16;5025359;28;20450;-79
2022/09/27 10:33:53;;;;;;;3.60;1.43;;;11.20;99.90;;;11.87;100.00;96565.00;5024083;28;20453;-80
2022/09/27 10:36:28;;;;;;;5.17;1.43;;;11.30;99.90;;;11.92;100.00;96565.09;5024485;28;21103;-79
2022/09/27 10:39:00;;;;;;;5.00;1.63;;;11.30;99.90;;;11.95;100.00;96562.00;5024141;28;20501;-79
2022/09/27 10:41:34;;;;;;;4.00;1.67;;;11.30;99.90;;;11.91;100.00;96559.06;5023369;28;20533;-79
2022/09/27 10:44:24;;;;;;;5.83;1.50;;;11.30;99.90;;;11.90;100.00;96554.06;5022441;28;20601;-79
2022/09/27 10:46:56;;;;;;;2.30;1.30;;;11.30;99.90;;;11.91;100.00;96558.25;5023604;28;20968;-79
2022/09/27 10:49:30;;;;;;;2.50;1.60;;;11.30;99.90;;;11.91;100.00;96551.19;5024498;28;20460;-79